Terminal Aerodrome Forecast
Issued by NWS

Home | Current Version | Previous Version | Graphics & Text | Print | Product List | Glossary On
Versions: 1 2 3 4 5 6 7 8 9 10 11 12 13 14 15 16 17 18 19 20 21 22 23 24 25 26 27 28 29
000
FTUS43 KLOT 011914 AAA
TAFORD
TAF AMD
KORD 011914Z 0119/0224 05012KT P6SM OVC008
     FM012200 03012G16KT 5SM -SHRA BR OVC010
      TEMPO 0200/0203 3SM RA BR OVC005
     FM020300 03011KT 5SM BR OVC003
     FM021500 02011KT P6SM FEW005 SCT012=

USA.gov is the U.S. government's official web portal to all federal, state and local government web resources and services.